sensor_id;sensor_type;location;lat;lon;timestamp;P1;durP1;ratioP1;P2;durP2;ratioP2
52708;SDS011;38606;52.986;6.980;2022-12-15T00:00:12;43.45;;;18.73;;
52708;SDS011;38606;52.986;6.980;2022-12-15T00:03:02;34.92;;;16.73;;
52708;SDS011;38606;52.986;6.980;2022-12-15T00:05:48;34.00;;;16.42;;
52708;SDS011;38606;52.986;6.980;2022-12-15T00:08:32;33.75;;;16.70;;
52708;SDS011;38606;52.986;6.980;2022-12-15T00:11:17;33.60;;;15.68;;
52708;SDS011;38606;52.986;6.980;2022-12-15T00:14:02;30.83;;;16.17;;
52708;SDS011;38606;52.986;6.980;2022-12-15T00:16:47;34.42;;;15.65;;
52708;SDS011;38606;52.986;6.980;2022-12-15T00:19:32;35.05;;;17.60;;
52708;SDS011;38606;52.986;6.980;2022-12-15T00:22:17;34.53;;;16.48;;
52708;SDS011;38606;52.986;6.980;2022-12-15T00:25:02;32.70;;;16.02;;
52708;SDS011;38606;52.986;6.980;2022-12-15T00:27:47;31.38;;;15.40;;
52708;SDS011;38606;52.986;6.980;2022-12-15T00:30:31;27.98;;;14.68;;
52708;SDS011;38606;52.986;6.980;2022-12-15T00:33:16;35.80;;;17.02;;
52708;SDS011;38606;52.986;6.980;2022-12-15T00:36:01;33.78;;;16.27;;
52708;SDS011;38606;52.986;6.980;2022-12-15T00:38:45;31.38;;;16.65;;
52708;SDS011;38606;52.986;6.980;2022-12-15T00:41:12;33.92;;;16.50;;
52708;SDS011;38606;52.986;6.980;2022-12-15T00:43:40;33.85;;;16.52;;
52708;SDS011;38606;52.986;6.980;2022-12-15T00:46:06;34.10;;;16.75;;
52708;SDS011;38606;52.986;6.980;2022-12-15T00:48:51;37.28;;;17.88;;
52708;SDS011;38606;52.986;6.980;2022-12-15T00:51:17;43.63;;;18.67;;
52708;SDS011;38606;52.986;6.980;2022-12-15T00:53:44;35.95;;;16.88;;
52708;SDS011;38606;52.986;6.980;2022-12-15T00:56:29;35.53;;;17.70;;
52708;SDS011;38606;52.986;6.980;2022-12-15T00:59:14;37.40;;;17.55;;
52708;SDS011;38606;52.986;6.980;2022-12-15T01:01:59;37.13;;;17.92;;
52708;SDS011;38606;52.986;6.980;2022-12-15T01:04:44;37.00;;;18.50;;
52708;SDS011;38606;52.986;6.980;2022-12-15T01:07:29;38.00;;;17.52;;
52708;SDS011;38606;52.986;6.980;2022-12-15T01:10:14;34.45;;;16.75;;
52708;SDS011;38606;52.986;6.980;2022-12-15T01:12:58;31.77;;;15.82;;
52708;SDS011;38606;52.986;6.980;2022-12-15T01:15:43;35.78;;;17.33;;
52708;SDS011;38606;52.986;6.980;2022-12-15T01:18:28;33.38;;;16.45;;
52708;SDS011;38606;52.986;6.980;2022-12-15T01:21:13;33.45;;;15.77;;
52708;SDS011;38606;52.986;6.980;2022-12-15T01:23:39;33.67;;;16.83;;
52708;SDS011;38606;52.986;6.980;2022-12-15T01:26:06;33.58;;;16.10;;
52708;SDS011;38606;52.986;6.980;2022-12-15T01:28:32;31.45;;;15.85;;
52708;SDS011;38606;52.986;6.980;2022-12-15T01:30:58;34.17;;;16.10;;
52708;SDS011;38606;52.986;6.980;2022-12-15T01:33:24;30.27;;;16.00;;
52708;SDS011;38606;52.986;6.980;2022-12-15T01:36:09;31.88;;;15.98;;
52708;SDS011;38606;52.986;6.980;2022-12-15T01:38:34;32.50;;;15.32;;
52708;SDS011;38606;52.986;6.980;2022-12-15T01:41:02;34.92;;;16.23;;
52708;SDS011;38606;52.986;6.980;2022-12-15T01:43:32;31.90;;;15.95;;
52708;SDS011;38606;52.986;6.980;2022-12-15T01:48:47;30.75;;;15.00;;
52708;SDS011;38606;52.986;6.980;2022-12-15T01:51:33;33.08;;;16.20;;
52708;SDS011;38606;52.986;6.980;2022-12-15T01:54:03;32.08;;;15.73;;
52708;SDS011;38606;52.986;6.980;2022-12-15T01:56:39;31.02;;;16.02;;
52708;SDS011;38606;52.986;6.980;2022-12-15T01:59:13;30.15;;;15.82;;
52708;SDS011;38606;52.986;6.980;2022-12-15T02:01:53;30.17;;;14.82;;
52708;SDS011;38606;52.986;6.980;2022-12-15T02:04:19;35.03;;;16.10;;
52708;SDS011;38606;52.986;6.980;2022-12-15T02:06:46;32.63;;;16.10;;
52708;SDS011;38606;52.986;6.980;2022-12-15T02:09:12;30.67;;;15.05;;
52708;SDS011;38606;52.986;6.980;2022-12-15T02:14:18;27.48;;;15.32;;
52708;SDS011;38606;52.986;6.980;2022-12-15T02:17:27;31.00;;;15.50;;
52708;SDS011;38606;52.986;6.980;2022-12-15T02:31:37;32.53;;;15.45;;
52708;SDS011;38606;52.986;6.980;2022-12-15T02:36:41;33.78;;;15.98;;
52708;SDS011;38606;52.986;6.980;2022-12-15T02:39:11;27.38;;;14.18;;
52708;SDS011;38606;52.986;6.980;2022-12-15T02:41:39;31.50;;;15.20;;
52708;SDS011;38606;52.986;6.980;2022-12-15T02:44:11;28.80;;;14.40;;
52708;SDS011;38606;52.986;6.980;2022-12-15T02:58:05;32.38;;;14.00;;
52708;SDS011;38606;52.986;6.980;2022-12-15T03:00:40;28.60;;;14.45;;
52708;SDS011;38606;52.986;6.980;2022-12-15T03:03:10;29.70;;;13.77;;
52708;SDS011;38606;52.986;6.980;2022-12-15T03:05:44;28.35;;;14.32;;
52708;SDS011;38606;52.986;6.980;2022-12-15T03:08:18;29.00;;;14.40;;
52708;SDS011;38606;52.986;6.980;2022-12-15T03:10:45;30.15;;;14.02;;
52708;SDS011;38606;52.986;6.980;2022-12-15T03:13:11;28.30;;;13.85;;
52708;SDS011;38606;52.986;6.980;2022-12-15T03:15:38;31.98;;;13.80;;
52708;SDS011;38606;52.986;6.980;2022-12-15T03:18:04;27.25;;;13.40;;
52708;SDS011;38606;52.986;6.980;2022-12-15T03:20:30;24.50;;;13.07;;
52708;SDS011;38606;52.986;6.980;2022-12-15T03:22:56;27.27;;;13.55;;
52708;SDS011;38606;52.986;6.980;2022-12-15T03:25:22;25.70;;;13.02;;
52708;SDS011;38606;52.986;6.980;2022-12-15T03:27:48;25.48;;;12.88;;
52708;SDS011;38606;52.986;6.980;2022-12-15T03:30:14;29.17;;;13.82;;
52708;SDS011;38606;52.986;6.980;2022-12-15T03:32:40;25.58;;;13.32;;
52708;SDS011;38606;52.986;6.980;2022-12-15T03:35:06;29.42;;;14.02;;
52708;SDS011;38606;52.986;6.980;2022-12-15T03:37:32;25.48;;;13.52;;
52708;SDS011;38606;52.986;6.980;2022-12-15T03:39:58;27.15;;;13.43;;
52708;SDS011;38606;52.986;6.980;2022-12-15T03:42:24;30.17;;;14.20;;
52708;SDS011;38606;52.986;6.980;2022-12-15T03:45:08;27.40;;;13.38;;
52708;SDS011;38606;52.986;6.980;2022-12-15T03:47:34;29.88;;;13.77;;
52708;SDS011;38606;52.986;6.980;2022-12-15T03:50:00;26.05;;;14.05;;
52708;SDS011;38606;52.986;6.980;2022-12-15T03:52:26;30.02;;;13.98;;
52708;SDS011;38606;52.986;6.980;2022-12-15T03:54:52;28.73;;;14.25;;
52708;SDS011;38606;52.986;6.980;2022-12-15T03:57:19;29.48;;;13.73;;
52708;SDS011;38606;52.986;6.980;2022-12-15T03:59:45;28.55;;;14.07;;
52708;SDS011;38606;52.986;6.980;2022-12-15T04:02:11;33.13;;;14.63;;
52708;SDS011;38606;52.986;6.980;2022-12-15T04:04:37;26.08;;;13.57;;
52708;SDS011;38606;52.986;6.980;2022-12-15T04:07:02;31.38;;;13.60;;
52708;SDS011;38606;52.986;6.980;2022-12-15T04:09:28;25.20;;;12.95;;
52708;SDS011;38606;52.986;6.980;2022-12-15T04:11:54;28.88;;;13.48;;
52708;SDS011;38606;52.986;6.980;2022-12-15T04:14:20;24.27;;;14.25;;
52708;SDS011;38606;52.986;6.980;2022-12-15T04:16:47;30.83;;;14.10;;
52708;SDS011;38606;52.986;6.980;2022-12-15T04:19:13;26.17;;;12.77;;
52708;SDS011;38606;52.986;6.980;2022-12-15T04:21:57;26.40;;;12.77;;
52708;SDS011;38606;52.986;6.980;2022-12-15T04:24:26;24.98;;;13.23;;
52708;SDS011;38606;52.986;6.980;2022-12-15T04:27:10;26.77;;;12.82;;
52708;SDS011;38606;52.986;6.980;2022-12-15T04:29:55;29.90;;;13.48;;
52708;SDS011;38606;52.986;6.980;2022-12-15T04:32:40;26.55;;;13.07;;
52708;SDS011;38606;52.986;6.980;2022-12-15T04:35:25;24.08;;;12.25;;
52708;SDS011;38606;52.986;6.980;2022-12-15T04:38:09;23.17;;;12.40;;
52708;SDS011;38606;52.986;6.980;2022-12-15T04:40:54;24.58;;;12.40;;
52708;SDS011;38606;52.986;6.980;2022-12-15T04:43:39;22.83;;;11.95;;
52708;SDS011;38606;52.986;6.980;2022-12-15T04:46:24;25.55;;;13.35;;
52708;SDS011;38606;52.986;6.980;2022-12-15T04:49:09;22.00;;;11.93;;
52708;SDS011;38606;52.986;6.980;2022-12-15T04:51:53;23.63;;;11.95;;
52708;SDS011;38606;52.986;6.980;2022-12-15T04:54:38;26.48;;;11.85;;
52708;SDS011;38606;52.986;6.980;2022-12-15T04:57:22;25.13;;;12.18;;
52708;SDS011;38606;52.986;6.980;2022-12-15T05:00:07;23.90;;;12.32;;
52708;SDS011;38606;52.986;6.980;2022-12-15T05:02:51;24.23;;;12.52;;
52708;SDS011;38606;52.986;6.980;2022-12-15T05:05:36;26.92;;;11.77;;
52708;SDS011;38606;52.986;6.980;2022-12-15T05:08:21;23.95;;;12.73;;
52708;SDS011;38606;52.986;6.980;2022-12-15T05:11:06;23.00;;;12.13;;
52708;SDS011;38606;52.986;6.980;2022-12-15T05:13:50;26.63;;;12.85;;
52708;SDS011;38606;52.986;6.980;2022-12-15T05:16:35;27.92;;;13.07;;
52708;SDS011;38606;52.986;6.980;2022-12-15T05:19:20;22.90;;;12.23;;
52708;SDS011;38606;52.986;6.980;2022-12-15T05:22:05;23.52;;;11.95;;
52708;SDS011;38606;52.986;6.980;2022-12-15T05:24:50;25.60;;;12.07;;
52708;SDS011;38606;52.986;6.980;2022-12-15T05:27:34;22.95;;;11.95;;
52708;SDS011;38606;52.986;6.980;2022-12-15T05:30:19;24.80;;;11.90;;
52708;SDS011;38606;52.986;6.980;2022-12-15T05:33:04;23.38;;;12.02;;
52708;SDS011;38606;52.986;6.980;2022-12-15T05:35:30;22.92;;;11.18;;
52708;SDS011;38606;52.986;6.980;2022-12-15T05:37:55;24.88;;;12.20;;
52708;SDS011;38606;52.986;6.980;2022-12-15T05:40:21;22.83;;;11.32;;
52708;SDS011;38606;52.986;6.980;2022-12-15T05:42:47;22.90;;;12.15;;
52708;SDS011;38606;52.986;6.980;2022-12-15T05:45:13;19.77;;;10.30;;
52708;SDS011;38606;52.986;6.980;2022-12-15T05:47:39;22.92;;;10.63;;
52708;SDS011;38606;52.986;6.980;2022-12-15T05:50:05;21.80;;;10.98;;
52708;SDS011;38606;52.986;6.980;2022-12-15T05:52:31;22.88;;;12.15;;
52708;SDS011;38606;52.986;6.980;2022-12-15T05:54:57;24.92;;;11.55;;
52708;SDS011;38606;52.986;6.980;2022-12-15T05:57:23;25.02;;;11.60;;
52708;SDS011;38606;52.986;6.980;2022-12-15T05:59:49;20.98;;;11.48;;
52708;SDS011;38606;52.986;6.980;2022-12-15T06:02:15;26.10;;;11.68;;
52708;SDS011;38606;52.986;6.980;2022-12-15T06:04:41;20.58;;;10.88;;
52708;SDS011;38606;52.986;6.980;2022-12-15T06:07:07;19.42;;;11.35;;
52708;SDS011;38606;52.986;6.980;2022-12-15T06:09:33;19.85;;;10.52;;
52708;SDS011;38606;52.986;6.980;2022-12-15T06:11:59;20.75;;;11.02;;
52708;SDS011;38606;52.986;6.980;2022-12-15T06:14:25;25.42;;;11.27;;
52708;SDS011;38606;52.986;6.980;2022-12-15T06:16:51;17.90;;;9.40;;
52708;SDS011;38606;52.986;6.980;2022-12-15T06:19:17;17.83;;;9.70;;
52708;SDS011;38606;52.986;6.980;2022-12-15T06:21:44;16.10;;;9.77;;
52708;SDS011;38606;52.986;6.980;2022-12-15T06:24:10;18.25;;;9.43;;
52708;SDS011;38606;52.986;6.980;2022-12-15T06:26:36;18.88;;;10.10;;
52708;SDS011;38606;52.986;6.980;2022-12-15T06:29:05;20.27;;;9.52;;
52708;SDS011;38606;52.986;6.980;2022-12-15T06:31:32;19.20;;;10.25;;
52708;SDS011;38606;52.986;6.980;2022-12-15T06:34:02;20.02;;;9.90;;
52708;SDS011;38606;52.986;6.980;2022-12-15T06:36:29;23.60;;;10.00;;
52708;SDS011;38606;52.986;6.980;2022-12-15T06:38:58;24.75;;;12.43;;
52708;SDS011;38606;52.986;6.980;2022-12-15T06:41:25;30.67;;;14.35;;
52708;SDS011;38606;52.986;6.980;2022-12-15T06:43:54;32.97;;;15.93;;
52708;SDS011;38606;52.986;6.980;2022-12-15T06:46:20;31.05;;;14.23;;
52708;SDS011;38606;52.986;6.980;2022-12-15T06:48:46;39.53;;;14.52;;
52708;SDS011;38606;52.986;6.980;2022-12-15T06:51:13;27.45;;;13.45;;
52708;SDS011;38606;52.986;6.980;2022-12-15T06:53:40;20.58;;;10.95;;
52708;SDS011;38606;52.986;6.980;2022-12-15T06:56:16;24.97;;;10.20;;
52708;SDS011;38606;52.986;6.980;2022-12-15T06:58:48;21.30;;;10.35;;
52708;SDS011;38606;52.986;6.980;2022-12-15T07:01:15;23.48;;;10.00;;
52708;SDS011;38606;52.986;6.980;2022-12-15T07:03:42;17.92;;;10.13;;
52708;SDS011;38606;52.986;6.980;2022-12-15T07:06:09;19.23;;;10.48;;
52708;SDS011;38606;52.986;6.980;2022-12-15T07:08:35;19.23;;;9.95;;
52708;SDS011;38606;52.986;6.980;2022-12-15T07:11:02;17.77;;;9.73;;
52708;SDS011;38606;52.986;6.980;2022-12-15T07:13:29;22.65;;;10.02;;
52708;SDS011;38606;52.986;6.980;2022-12-15T07:15:57;22.55;;;10.55;;
52708;SDS011;38606;52.986;6.980;2022-12-15T07:18:27;18.67;;;10.23;;
52708;SDS011;38606;52.986;6.980;2022-12-15T07:20:54;21.90;;;11.10;;
52708;SDS011;38606;52.986;6.980;2022-12-15T07:23:21;17.13;;;9.27;;
52708;SDS011;38606;52.986;6.980;2022-12-15T07:25:47;19.10;;;10.20;;
52708;SDS011;38606;52.986;6.980;2022-12-15T07:28:13;22.13;;;10.82;;
52708;SDS011;38606;52.986;6.980;2022-12-15T07:30:39;18.33;;;10.55;;
52708;SDS011;38606;52.986;6.980;2022-12-15T07:33:05;20.75;;;10.35;;
52708;SDS011;38606;52.986;6.980;2022-12-15T07:35:31;18.35;;;9.98;;
52708;SDS011;38606;52.986;6.980;2022-12-15T07:37:57;27.52;;;11.18;;
52708;SDS011;38606;52.986;6.980;2022-12-15T07:40:24;18.60;;;10.18;;
52708;SDS011;38606;52.986;6.980;2022-12-15T07:42:50;21.92;;;10.10;;
52708;SDS011;38606;52.986;6.980;2022-12-15T07:45:15;20.42;;;10.77;;
52708;SDS011;38606;52.986;6.980;2022-12-15T07:47:41;20.02;;;10.30;;
52708;SDS011;38606;52.986;6.980;2022-12-15T07:50:07;19.85;;;10.32;;
52708;SDS011;38606;52.986;6.980;2022-12-15T07:52:33;22.60;;;10.57;;
52708;SDS011;38606;52.986;6.980;2022-12-15T07:54:59;21.48;;;10.88;;
52708;SDS011;38606;52.986;6.980;2022-12-15T07:57:25;22.52;;;10.60;;
52708;SDS011;38606;52.986;6.980;2022-12-15T07:59:51;18.65;;;10.27;;
52708;SDS011;38606;52.986;6.980;2022-12-15T08:02:17;19.90;;;9.70;;
52708;SDS011;38606;52.986;6.980;2022-12-15T08:04:43;24.23;;;10.35;;
52708;SDS011;38606;52.986;6.980;2022-12-15T08:07:09;20.83;;;10.73;;
52708;SDS011;38606;52.986;6.980;2022-12-15T08:09:35;19.23;;;9.70;;
52708;SDS011;38606;52.986;6.980;2022-12-15T08:12:01;21.73;;;10.90;;
52708;SDS011;38606;52.986;6.980;2022-12-15T08:14:27;16.45;;;9.95;;
52708;SDS011;38606;52.986;6.980;2022-12-15T08:16:53;24.48;;;11.00;;
52708;SDS011;38606;52.986;6.980;2022-12-15T08:19:19;21.30;;;10.27;;
52708;SDS011;38606;52.986;6.980;2022-12-15T08:21:46;23.30;;;10.85;;
52708;SDS011;38606;52.986;6.980;2022-12-15T08:24:12;24.08;;;10.82;;
52708;SDS011;38606;52.986;6.980;2022-12-15T08:26:39;20.42;;;10.23;;
52708;SDS011;38606;52.986;6.980;2022-12-15T08:29:07;20.50;;;10.50;;
52708;SDS011;38606;52.986;6.980;2022-12-15T08:31:35;20.55;;;10.48;;
52708;SDS011;38606;52.986;6.980;2022-12-15T08:34:01;18.05;;;10.38;;
52708;SDS011;38606;52.986;6.980;2022-12-15T08:36:29;20.33;;;10.15;;
52708;SDS011;38606;52.986;6.980;2022-12-15T08:38:56;23.35;;;10.82;;
52708;SDS011;38606;52.986;6.980;2022-12-15T08:41:23;21.23;;;10.90;;
52708;SDS011;38606;52.986;6.980;2022-12-15T08:43:54;23.30;;;11.43;;
52708;SDS011;38606;52.986;6.980;2022-12-15T08:46:21;22.48;;;11.77;;
52708;SDS011;38606;52.986;6.980;2022-12-15T08:48:49;21.35;;;11.32;;
52708;SDS011;38606;52.986;6.980;2022-12-15T08:51:17;25.58;;;12.48;;
52708;SDS011;38606;52.986;6.980;2022-12-15T08:53:43;20.83;;;10.95;;
52708;SDS011;38606;52.986;6.980;2022-12-15T08:56:10;20.27;;;11.18;;
52708;SDS011;38606;52.986;6.980;2022-12-15T08:58:37;20.73;;;11.45;;
52708;SDS011;38606;52.986;6.980;2022-12-15T09:01:05;23.90;;;12.32;;
52708;SDS011;38606;52.986;6.980;2022-12-15T09:03:33;24.10;;;11.15;;
52708;SDS011;38606;52.986;6.980;2022-12-15T09:06:07;24.15;;;12.57;;
52708;SDS011;38606;52.986;6.980;2022-12-15T09:08:37;24.92;;;13.02;;
52708;SDS011;38606;52.986;6.980;2022-12-15T09:11:03;26.92;;;13.00;;
52708;SDS011;38606;52.986;6.980;2022-12-15T09:13:32;24.95;;;12.93;;
52708;SDS011;38606;52.986;6.980;2022-12-15T09:15:58;23.02;;;12.35;;
52708;SDS011;38606;52.986;6.980;2022-12-15T09:18:25;25.85;;;13.60;;
52708;SDS011;38606;52.986;6.980;2022-12-15T09:20:51;22.98;;;12.32;;
52708;SDS011;38606;52.986;6.980;2022-12-15T09:23:18;24.30;;;13.05;;
52708;SDS011;38606;52.986;6.980;2022-12-15T09:25:44;24.23;;;12.77;;
52708;SDS011;38606;52.986;6.980;2022-12-15T09:28:11;24.77;;;12.32;;
52708;SDS011;38606;52.986;6.980;2022-12-15T09:30:37;24.65;;;12.38;;
52708;SDS011;38606;52.986;6.980;2022-12-15T09:33:03;21.33;;;11.93;;
52708;SDS011;38606;52.986;6.980;2022-12-15T09:35:29;21.48;;;12.70;;
52708;SDS011;38606;52.986;6.980;2022-12-15T09:37:57;20.20;;;12.07;;
52708;SDS011;38606;52.986;6.980;2022-12-15T09:40:23;23.25;;;12.05;;
52708;SDS011;38606;52.986;6.980;2022-12-15T09:42:54;22.73;;;12.05;;
52708;SDS011;38606;52.986;6.980;2022-12-15T09:45:22;24.73;;;12.15;;
52708;SDS011;38606;52.986;6.980;2022-12-15T09:48:02;22.70;;;12.15;;
52708;SDS011;38606;52.986;6.980;2022-12-15T09:50:34;23.33;;;12.13;;
52708;SDS011;38606;52.986;6.980;2022-12-15T09:53:03;21.77;;;11.63;;
52708;SDS011;38606;52.986;6.980;2022-12-15T09:55:34;28.50;;;11.70;;
52708;SDS011;38606;52.986;6.980;2022-12-15T10:01:42;18.05;;;10.38;;
52708;SDS011;38606;52.986;6.980;2022-12-15T10:07:01;24.05;;;10.77;;
52708;SDS011;38606;52.986;6.980;2022-12-15T10:09:48;21.20;;;10.52;;
52708;SDS011;38606;52.986;6.980;2022-12-15T10:12:15;23.75;;;11.55;;
52708;SDS011;38606;52.986;6.980;2022-12-15T10:15:05;22.38;;;11.95;;
52708;SDS011;38606;52.986;6.980;2022-12-15T10:17:37;23.70;;;13.18;;
52708;SDS011;38606;52.986;6.980;2022-12-15T10:22:37;20.63;;;11.13;;
52708;SDS011;38606;52.986;6.980;2022-12-15T10:25:21;21.65;;;12.10;;
52708;SDS011;38606;52.986;6.980;2022-12-15T10:28:07;20.35;;;11.38;;
52708;SDS011;38606;52.986;6.980;2022-12-15T10:30:56;21.23;;;11.18;;
52708;SDS011;38606;52.986;6.980;2022-12-15T10:33:24;17.45;;;10.07;;
52708;SDS011;38606;52.986;6.980;2022-12-15T10:35:52;18.77;;;9.90;;
52708;SDS011;38606;52.986;6.980;2022-12-15T10:38:35;21.52;;;9.75;;
52708;SDS011;38606;52.986;6.980;2022-12-15T10:41:08;20.00;;;10.18;;
52708;SDS011;38606;52.986;6.980;2022-12-15T10:43:37;17.65;;;10.48;;
52708;SDS011;38606;52.986;6.980;2022-12-15T10:48:33;23.33;;;9.93;;
52708;SDS011;38606;52.986;6.980;2022-12-15T10:53:45;18.38;;;10.13;;
52708;SDS011;38606;52.986;6.980;2022-12-15T10:56:17;21.52;;;10.95;;
52708;SDS011;38606;52.986;6.980;2022-12-15T10:58:49;16.92;;;9.20;;
52708;SDS011;38606;52.986;6.980;2022-12-15T11:01:25;14.82;;;9.23;;
52708;SDS011;38606;52.986;6.980;2022-12-15T11:03:52;17.65;;;8.98;;
52708;SDS011;38606;52.986;6.980;2022-12-15T11:08:49;22.90;;;10.40;;
52708;SDS011;38606;52.986;6.980;2022-12-15T11:11:34;18.30;;;9.07;;
52708;SDS011;38606;52.986;6.980;2022-12-15T11:14:28;19.83;;;9.35;;
52708;SDS011;38606;52.986;6.980;2022-12-15T11:17:13;15.82;;;9.25;;
52708;SDS011;38606;52.986;6.980;2022-12-15T11:19:52;23.42;;;10.27;;
52708;SDS011;38606;52.986;6.980;2022-12-15T11:24:53;18.33;;;9.77;;
52708;SDS011;38606;52.986;6.980;2022-12-15T11:27:31;17.58;;;10.45;;
52708;SDS011;38606;52.986;6.980;2022-12-15T11:30:13;16.27;;;10.27;;
52708;SDS011;38606;52.986;6.980;2022-12-15T11:32:43;18.13;;;10.45;;
52708;SDS011;38606;52.986;6.980;2022-12-15T11:35:12;22.42;;;10.98;;
52708;SDS011;38606;52.986;6.980;2022-12-15T11:37:40;17.73;;;11.07;;
52708;SDS011;38606;52.986;6.980;2022-12-15T11:51:03;17.90;;;11.07;;
52708;SDS011;38606;52.986;6.980;2022-12-15T12:07:31;14.30;;;9.20;;
52708;SDS011;38606;52.986;6.980;2022-12-15T12:12:42;20.00;;;9.75;;
52708;SDS011;38606;52.986;6.980;2022-12-15T12:15:19;16.33;;;8.90;;
52708;SDS011;38606;52.986;6.980;2022-12-15T12:17:50;17.10;;;8.48;;
52708;SDS011;38606;52.986;6.980;2022-12-15T12:20:19;22.10;;;8.98;;
52708;SDS011;38606;52.986;6.980;2022-12-15T12:23:04;19.83;;;9.45;;
52708;SDS011;38606;52.986;6.980;2022-12-15T12:25:57;14.35;;;8.57;;
52708;SDS011;38606;52.986;6.980;2022-12-15T12:38:00;21.73;;;9.95;;
52708;SDS011;38606;52.986;6.980;2022-12-15T12:40:17;18.95;;;7.90;;
52708;SDS011;38606;52.986;6.980;2022-12-15T12:42:53;17.33;;;8.38;;
52708;SDS011;38606;52.986;6.980;2022-12-15T12:45:44;19.60;;;8.75;;
52708;SDS011;38606;52.986;6.980;2022-12-15T12:48:20;12.13;;;6.75;;
52708;SDS011;38606;52.986;6.980;2022-12-15T12:53:47;17.40;;;8.65;;
52708;SDS011;38606;52.986;6.980;2022-12-15T12:59:05;16.42;;;8.68;;
52708;SDS011;38606;52.986;6.980;2022-12-15T13:01:53;16.45;;;8.95;;
52708;SDS011;38606;52.986;6.980;2022-12-15T13:09:37;18.00;;;9.63;;
52708;SDS011;38606;52.986;6.980;2022-12-15T13:17:53;19.25;;;10.52;;
52708;SDS011;38606;52.986;6.980;2022-12-15T13:20:23;19.88;;;10.38;;
52708;SDS011;38606;52.986;6.980;2022-12-15T13:22:54;18.20;;;10.68;;
52708;SDS011;38606;52.986;6.980;2022-12-15T13:25:34;20.20;;;11.02;;
52708;SDS011;38606;52.986;6.980;2022-12-15T13:28:16;18.92;;;10.82;;
52708;SDS011;38606;52.986;6.980;2022-12-15T13:31:23;23.48;;;10.95;;
52708;SDS011;38606;52.986;6.980;2022-12-15T13:39:01;21.73;;;10.55;;
52708;SDS011;38606;52.986;6.980;2022-12-15T13:41:29;21.23;;;11.85;;
52708;SDS011;38606;52.986;6.980;2022-12-15T13:43:57;23.30;;;11.35;;
52708;SDS011;38606;52.986;6.980;2022-12-15T13:46:26;21.38;;;11.48;;
52708;SDS011;38606;52.986;6.980;2022-12-15T13:51:44;22.90;;;11.82;;
52708;SDS011;38606;52.986;6.980;2022-12-15T13:54:22;24.02;;;11.15;;
52708;SDS011;38606;52.986;6.980;2022-12-15T13:57:02;22.45;;;12.57;;
52708;SDS011;38606;52.986;6.980;2022-12-15T14:02:01;19.98;;;12.40;;
52708;SDS011;38606;52.986;6.980;2022-12-15T14:04:27;22.98;;;12.15;;
52708;SDS011;38606;52.986;6.980;2022-12-15T14:06:53;21.95;;;12.63;;
52708;SDS011;38606;52.986;6.980;2022-12-15T14:11:57;26.67;;;13.23;;
52708;SDS011;38606;52.986;6.980;2022-12-15T14:14:27;22.15;;;12.32;;
52708;SDS011;38606;52.986;6.980;2022-12-15T14:16:56;25.77;;;13.15;;
52708;SDS011;38606;52.986;6.980;2022-12-15T14:19:24;20.98;;;12.80;;
52708;SDS011;38606;52.986;6.980;2022-12-15T14:21:56;22.67;;;13.48;;
52708;SDS011;38606;52.986;6.980;2022-12-15T14:24:26;30.90;;;14.07;;
52708;SDS011;38606;52.986;6.980;2022-12-15T14:26:54;25.13;;;13.93;;
52708;SDS011;38606;52.986;6.980;2022-12-15T14:29:20;24.77;;;13.43;;
52708;SDS011;38606;52.986;6.980;2022-12-15T14:31:50;25.48;;;14.07;;
52708;SDS011;38606;52.986;6.980;2022-12-15T14:34:29;32.08;;;15.90;;
52708;SDS011;38606;52.986;6.980;2022-12-15T14:37:00;24.23;;;13.15;;
52708;SDS011;38606;52.986;6.980;2022-12-15T14:39:41;25.13;;;14.00;;
52708;SDS011;38606;52.986;6.980;2022-12-15T14:42:17;22.77;;;14.73;;
52708;SDS011;38606;52.986;6.980;2022-12-15T14:44:51;27.05;;;15.30;;
52708;SDS011;38606;52.986;6.980;2022-12-15T14:47:19;25.85;;;13.98;;
52708;SDS011;38606;52.986;6.980;2022-12-15T14:49:47;28.17;;;15.65;;
52708;SDS011;38606;52.986;6.980;2022-12-15T14:52:33;26.95;;;15.15;;
52708;SDS011;38606;52.986;6.980;2022-12-15T15:00:55;26.98;;;14.68;;
52708;SDS011;38606;52.986;6.980;2022-12-15T15:03:24;23.92;;;14.90;;
52708;SDS011;38606;52.986;6.980;2022-12-15T15:11:31;28.92;;;16.50;;
52708;SDS011;38606;52.986;6.980;2022-12-15T15:14:12;22.48;;;14.98;;
52708;SDS011;38606;52.986;6.980;2022-12-15T15:16:43;25.85;;;15.57;;
52708;SDS011;38606;52.986;6.980;2022-12-15T15:19:18;28.02;;;15.45;;
52708;SDS011;38606;52.986;6.980;2022-12-15T15:21:46;28.20;;;16.33;;
52708;SDS011;38606;52.986;6.980;2022-12-15T15:26:38;26.50;;;15.07;;
52708;SDS011;38606;52.986;6.980;2022-12-15T15:29:27;32.53;;;16.20;;
52708;SDS011;38606;52.986;6.980;2022-12-15T15:32:17;29.77;;;15.38;;
52708;SDS011;38606;52.986;6.980;2022-12-15T15:34:45;28.20;;;16.00;;
52708;SDS011;38606;52.986;6.980;2022-12-15T15:39:45;31.30;;;15.82;;
52708;SDS011;38606;52.986;6.980;2022-12-15T15:42:12;28.65;;;16.13;;
52708;SDS011;38606;52.986;6.980;2022-12-15T15:44:38;28.23;;;16.50;;
52708;SDS011;38606;52.986;6.980;2022-12-15T15:47:04;28.05;;;15.60;;
52708;SDS011;38606;52.986;6.980;2022-12-15T15:49:31;32.83;;;17.10;;
52708;SDS011;38606;52.986;6.980;2022-12-15T15:51:57;28.95;;;16.58;;
52708;SDS011;38606;52.986;6.980;2022-12-15T15:54:24;30.98;;;16.63;;
52708;SDS011;38606;52.986;6.980;2022-12-15T15:56:57;29.40;;;16.90;;
52708;SDS011;38606;52.986;6.980;2022-12-15T15:59:23;33.53;;;18.35;;
52708;SDS011;38606;52.986;6.980;2022-12-15T16:01:52;28.15;;;15.73;;
52708;SDS011;38606;52.986;6.980;2022-12-15T16:04:23;31.50;;;18.02;;
52708;SDS011;38606;52.986;6.980;2022-12-15T16:06:50;30.95;;;17.40;;
52708;SDS011;38606;52.986;6.980;2022-12-15T16:09:17;29.65;;;17.52;;
52708;SDS011;38606;52.986;6.980;2022-12-15T16:11:43;29.48;;;17.05;;
52708;SDS011;38606;52.986;6.980;2022-12-15T16:14:11;32.33;;;18.50;;
52708;SDS011;38606;52.986;6.980;2022-12-15T16:16:38;32.17;;;17.83;;
52708;SDS011;38606;52.986;6.980;2022-12-15T16:19:03;32.75;;;19.15;;
52708;SDS011;38606;52.986;6.980;2022-12-15T16:21:29;32.47;;;18.85;;
52708;SDS011;38606;52.986;6.980;2022-12-15T16:23:55;36.17;;;19.60;;
52708;SDS011;38606;52.986;6.980;2022-12-15T16:26:28;34.90;;;19.33;;
52708;SDS011;38606;52.986;6.980;2022-12-15T16:28:56;35.70;;;18.27;;
52708;SDS011;38606;52.986;6.980;2022-12-15T16:31:29;37.60;;;20.08;;
52708;SDS011;38606;52.986;6.980;2022-12-15T16:33:56;33.53;;;19.33;;
52708;SDS011;38606;52.986;6.980;2022-12-15T16:36:22;37.25;;;20.38;;
52708;SDS011;38606;52.986;6.980;2022-12-15T16:38:48;34.72;;;18.98;;
52708;SDS011;38606;52.986;6.980;2022-12-15T16:41:15;34.15;;;19.35;;
52708;SDS011;38606;52.986;6.980;2022-12-15T16:43:42;34.92;;;19.75;;
52708;SDS011;38606;52.986;6.980;2022-12-15T16:46:12;37.40;;;18.92;;
52708;SDS011;38606;52.986;6.980;2022-12-15T16:48:39;35.70;;;20.65;;
52708;SDS011;38606;52.986;6.980;2022-12-15T16:51:06;35.03;;;19.88;;
52708;SDS011;38606;52.986;6.980;2022-12-15T16:53:34;33.90;;;20.45;;
52708;SDS011;38606;52.986;6.980;2022-12-15T16:56:03;36.10;;;19.77;;
52708;SDS011;38606;52.986;6.980;2022-12-15T16:58:33;34.80;;;19.27;;
52708;SDS011;38606;52.986;6.980;2022-12-15T17:00:59;36.05;;;20.35;;
52708;SDS011;38606;52.986;6.980;2022-12-15T17:03:25;34.80;;;19.85;;